sensor_id;sensor_type;location;lat;lon;timestamp;pressure;altitude;pressure_sealevel;temperature;humidity
72116;BME280;59991;52.140;5.428;2023-04-29T00:00:27;101488.50;;;9.40;100.00
72116;BME280;59991;52.140;5.428;2023-04-29T00:00:59;101496.25;;;9.38;100.00
72116;BME280;59991;52.140;5.428;2023-04-29T00:01:30;101487.63;;;9.36;100.00
72116;BME280;59991;52.140;5.428;2023-04-29T00:02:02;101494.22;;;9.35;100.00
72116;BME280;59991;52.140;5.428;2023-04-29T00:02:33;101496.16;;;9.34;100.00
72116;BME280;59991;52.140;5.428;2023-04-29T00:03:05;101492.63;;;9.34;100.00
72116;BME280;59991;52.140;5.428;2023-04-29T00:03:36;101494.56;;;9.33;100.00
72116;BME280;59991;52.140;5.428;2023-04-29T00:04:08;101490.72;;;9.34;100.00
72116;BME280;59991;52.140;5.428;2023-04-29T00:04:40;101489.56;;;9.35;100.00
72116;BME280;59991;52.140;5.428;2023-04-29T00:05:12;101496.59;;;9.37;100.00
72116;BME280;59991;52.140;5.428;2023-04-29T00:05:44;101500.91;;;9.38;100.00
72116;BME280;59991;52.140;5.428;2023-04-29T00:06:16;101494.31;;;9.39;100.00
72116;BME280;59991;52.140;5.428;2023-04-29T00:06:48;101497.81;;;9.39;100.00
72116;BME280;59991;52.140;5.428;2023-04-29T00:07:20;101497.03;;;9.39;100.00
72116;BME280;59991;52.140;5.428;2023-04-29T00:07:52;101497.81;;;9.39;100.00
72116;BME280;59991;52.140;5.428;2023-04-29T00:08:24;101503.28;;;9.39;100.00
72116;BME280;59991;52.140;5.428;2023-04-29T00:08:56;101495.09;;;9.39;100.00
72116;BME280;59991;52.140;5.428;2023-04-29T00:09:27;101508.72;;;9.39;100.00
72116;BME280;59991;52.140;5.428;2023-04-29T00:09:58;101497.03;;;9.39;100.00
72116;BME280;59991;52.140;5.428;2023-04-29T00:10:30;101492.72;;;9.38;100.00
72116;BME280;59991;52.140;5.428;2023-04-29T00:11:02;101501.69;;;9.38;100.00
72116;BME280;59991;52.140;5.428;2023-04-29T00:11:33;101503.63;;;9.38;100.00
72116;BME280;59991;52.140;5.428;2023-04-29T00:12:05;101508.28;;;9.37;100.00
72116;BME280;59991;52.140;5.428;2023-04-29T00:12:36;101508.28;;;9.37;100.00
72116;BME280;59991;52.140;5.428;2023-04-29T00:13:07;101500.09;;;9.37;100.00
72116;BME280;59991;52.140;5.428;2023-04-29T00:13:39;101495.81;;;9.36;100.00
72116;BME280;59991;52.140;5.428;2023-04-29T00:14:11;101496.94;;;9.35;100.00
72116;BME280;59991;52.140;5.428;2023-04-29T00:14:42;101503.97;;;9.36;100.00
72116;BME280;59991;52.140;5.428;2023-04-29T00:15:14;101501.25;;;9.36;100.00
72116;BME280;59991;52.140;5.428;2023-04-29T00:15:45;101496.59;;;9.37;100.00
72116;BME280;59991;52.140;5.428;2023-04-29T00:16:17;101501.25;;;9.36;100.00
72116;BME280;59991;52.140;5.428;2023-04-29T00:16:49;101505.09;;;9.35;100.00
72116;BME280;59991;52.140;5.428;2023-04-29T00:17:20;101497.28;;;9.33;100.00
72116;BME280;59991;52.140;5.428;2023-04-29T00:17:52;101504.66;;;9.33;100.00
72116;BME280;59991;52.140;5.428;2023-04-29T00:18:23;101503.09;;;9.32;100.00
72116;BME280;59991;52.140;5.428;2023-04-29T00:18:55;101512.84;;;9.33;100.00
72116;BME280;59991;52.140;5.428;2023-04-29T00:19:26;101500.38;;;9.32;100.00
72116;BME280;59991;52.140;5.428;2023-04-29T00:19:58;101507.38;;;9.33;100.00
72116;BME280;59991;52.140;5.428;2023-04-29T00:20:30;101504.31;;;9.34;100.00
72116;BME280;59991;52.140;5.428;2023-04-29T00:21:01;101499.66;;;9.35;100.00
72116;BME280;59991;52.140;5.428;2023-04-29T00:21:33;101500.44;;;9.35;100.00
72116;BME280;59991;52.140;5.428;2023-04-29T00:22:04;101503.97;;;9.36;100.00
72116;BME280;59991;52.140;5.428;2023-04-29T00:22:36;101502.81;;;9.37;100.00
72116;BME280;59991;52.140;5.428;2023-04-29T00:23:08;101509.41;;;9.36;100.00
72116;BME280;59991;52.140;5.428;2023-04-29T00:23:39;101511.34;;;9.35;100.00
72116;BME280;59991;52.140;5.428;2023-04-29T00:24:11;101507.47;;;9.37;100.00
72116;BME280;59991;52.140;5.428;2023-04-29T00:24:42;101505.91;;;9.35;100.00
72116;BME280;59991;52.140;5.428;2023-04-29T00:25:14;101513.72;;;9.37;100.00
72116;BME280;59991;52.140;5.428;2023-04-29T00:25:46;101510.19;;;9.37;100.00
72116;BME280;59991;52.140;5.428;2023-04-29T00:26:17;101507.47;;;9.37;100.00
72116;BME280;59991;52.140;5.428;2023-04-29T00:26:49;101514.84;;;9.36;100.00
72116;BME280;59991;52.140;5.428;2023-04-29T00:27:20;101514.84;;;9.36;100.00
72116;BME280;59991;52.140;5.428;2023-04-29T00:27:51;101508.97;;;9.34;100.00
72116;BME280;59991;52.140;5.428;2023-04-29T00:28:23;101513.28;;;9.35;100.00
72116;BME280;59991;52.140;5.428;2023-04-29T00:28:54;101508.63;;;9.35;100.00
72116;BME280;59991;52.140;5.428;2023-04-29T00:29:26;101516.00;;;9.35;100.00
72116;BME280;59991;52.140;5.428;2023-04-29T00:29:57;101516.78;;;9.35;100.00
72116;BME280;59991;52.140;5.428;2023-04-29T00:30:30;101513.28;;;9.35;100.00
72116;BME280;59991;52.140;5.428;2023-04-29T00:31:02;101512.13;;;9.36;100.00
72116;BME280;59991;52.140;5.428;2023-04-29T00:31:34;101519.94;;;9.38;100.00
72116;BME280;59991;52.140;5.428;2023-04-29T00:32:05;101521.09;;;9.37;100.00
72116;BME280;59991;52.140;5.428;2023-04-29T00:32:37;101526.19;;;9.38;100.00
72116;BME280;59991;52.140;5.428;2023-04-29T00:33:08;101519.94;;;9.38;100.00
72116;BME280;59991;52.140;5.428;2023-04-29T00:33:40;101517.22;;;9.38;100.00
72116;BME280;59991;52.140;5.428;2023-04-29T00:34:11;101522.66;;;9.38;100.00
72116;BME280;59991;52.140;5.428;2023-04-29T00:34:42;101519.16;;;9.37;100.00
72116;BME280;59991;52.140;5.428;2023-04-29T00:35:14;101527.31;;;9.37;100.00
72116;BME280;59991;52.140;5.428;2023-04-29T00:35:46;101526.19;;;9.38;100.00
72116;BME280;59991;52.140;5.428;2023-04-29T00:36:18;101524.59;;;9.37;100.00
72116;BME280;59991;52.140;5.428;2023-04-29T00:36:49;101522.66;;;9.38;100.00
72116;BME280;59991;52.140;5.428;2023-04-29T00:37:21;101526.19;;;9.38;100.00
72116;BME280;59991;52.140;5.428;2023-04-29T00:37:52;101523.47;;;9.38;100.00
72116;BME280;59991;52.140;5.428;2023-04-29T00:38:24;101532.75;;;9.37;100.00
72116;BME280;59991;52.140;5.428;2023-04-29T00:38:55;101531.19;;;9.36;100.00
72116;BME280;59991;52.140;5.428;2023-04-29T00:39:27;101526.88;;;9.35;100.00
72116;BME280;59991;52.140;5.428;2023-04-29T00:39:59;101527.22;;;9.33;100.00
72116;BME280;59991;52.140;5.428;2023-04-29T00:40:30;101526.88;;;9.35;100.00
72116;BME280;59991;52.140;5.428;2023-04-29T00:41:02;101527.66;;;9.35;100.00
72116;BME280;59991;52.140;5.428;2023-04-29T00:41:34;101535.03;;;9.35;100.00
72116;BME280;59991;52.140;5.428;2023-04-29T00:42:06;101528.47;;;9.36;100.00
72116;BME280;59991;52.140;5.428;2023-04-29T00:42:38;101529.25;;;9.37;100.00
72116;BME280;59991;52.140;5.428;2023-04-29T00:43:09;101526.09;;;9.34;100.00
72116;BME280;59991;52.140;5.428;2023-04-29T00:43:41;101532.66;;;9.33;100.00
72116;BME280;59991;52.140;5.428;2023-04-29T00:44:12;101534.59;;;9.33;100.00
72116;BME280;59991;52.140;5.428;2023-04-29T00:44:43;101533.03;;;9.32;100.00
72116;BME280;59991;52.140;5.428;2023-04-29T00:45:15;101527.94;;;9.30;100.00
72116;BME280;59991;52.140;5.428;2023-04-29T00:45:47;101531.44;;;9.31;100.00
72116;BME280;59991;52.140;5.428;2023-04-29T00:46:19;101538.47;;;9.32;100.00
72116;BME280;59991;52.140;5.428;2023-04-29T00:46:50;101526.78;;;9.31;100.00
72116;BME280;59991;52.140;5.428;2023-04-29T00:47:22;101528.72;;;9.31;100.00
72116;BME280;59991;52.140;5.428;2023-04-29T00:47:53;101530.31;;;9.32;100.00
72116;BME280;59991;52.140;5.428;2023-04-29T00:48:25;101526.78;;;9.31;100.00
72116;BME280;59991;52.140;5.428;2023-04-29T00:48:56;101531.09;;;9.32;100.00
72116;BME280;59991;52.140;5.428;2023-04-29T00:49:28;101535.75;;;9.32;100.00
72116;BME280;59991;52.140;5.428;2023-04-29T00:49:59;101532.22;;;9.31;100.00
72116;BME280;59991;52.140;5.428;2023-04-29T00:50:31;101530.31;;;9.32;100.00
72116;BME280;59991;52.140;5.428;2023-04-29T00:51:04;101537.69;;;9.31;100.00
72116;BME280;59991;52.140;5.428;2023-04-29T00:51:36;101533.38;;;9.30;100.00
72116;BME280;59991;52.140;5.428;2023-04-29T00:52:09;101532.59;;;9.30;100.00
72116;BME280;59991;52.140;5.428;2023-04-29T00:52:41;101530.66;;;9.30;100.00
72116;BME280;59991;52.140;5.428;2023-04-29T00:53:13;101536.88;;;9.31;100.00
72116;BME280;59991;52.140;5.428;2023-04-29T00:53:45;101540.41;;;9.31;100.00
72116;BME280;59991;52.140;5.428;2023-04-29T00:54:19;101533.03;;;9.32;100.00
72116;BME280;59991;52.140;5.428;2023-04-29T00:54:51;101536.53;;;9.32;100.00
72116;BME280;59991;52.140;5.428;2023-04-29T00:55:23;101540.03;;;9.33;100.00
72116;BME280;59991;52.140;5.428;2023-04-29T00:55:56;101543.13;;;9.31;100.00
72116;BME280;59991;52.140;5.428;2023-04-29T00:56:30;101536.88;;;9.31;100.00
72116;BME280;59991;52.140;5.428;2023-04-29T00:57:03;101538.03;;;9.30;100.00
72116;BME280;59991;52.140;5.428;2023-04-29T00:57:34;101536.44;;;9.29;100.00
72116;BME280;59991;52.140;5.428;2023-04-29T00:58:06;101538.72;;;9.27;100.00
72116;BME280;59991;52.140;5.428;2023-04-29T00:58:38;101538.72;;;9.27;100.00
72116;BME280;59991;52.140;5.428;2023-04-29T00:59:09;101533.63;;;9.25;100.00
72116;BME280;59991;52.140;5.428;2023-04-29T00:59:42;101541.78;;;9.25;100.00
72116;BME280;59991;52.140;5.428;2023-04-29T01:00:15;101542.13;;;9.24;100.00
72116;BME280;59991;52.140;5.428;2023-04-29T01:00:48;101541.78;;;9.25;100.00
72116;BME280;59991;52.140;5.428;2023-04-29T01:01:19;101541.78;;;9.25;100.00
72116;BME280;59991;52.140;5.428;2023-04-29T01:01:52;101539.88;;;9.26;100.00
72116;BME280;59991;52.140;5.428;2023-04-29T01:02:24;101542.22;;;9.27;100.00
72116;BME280;59991;52.140;5.428;2023-04-29T01:02:57;101543.03;;;9.28;100.00
72116;BME280;59991;52.140;5.428;2023-04-29T01:03:30;101543.03;;;9.28;100.00
72116;BME280;59991;52.140;5.428;2023-04-29T01:04:04;101538.72;;;9.27;100.00
72116;BME280;59991;52.140;5.428;2023-04-29T01:04:36;101538.72;;;9.27;100.00
72116;BME280;59991;52.140;5.428;2023-04-29T01:05:08;101546.88;;;9.27;100.00
72116;BME280;59991;52.140;5.428;2023-04-29T01:05:39;101546.88;;;9.27;100.00
72116;BME280;59991;52.140;5.428;2023-04-29T01:06:34;101548.03;;;9.26;100.00
72116;BME280;59991;52.140;5.428;2023-04-29T01:07:15;101548.38;;;9.24;100.00
72116;BME280;59991;52.140;5.428;2023-04-29T01:07:55;101540.22;;;9.24;100.00
72116;BME280;59991;52.140;5.428;2023-04-29T01:08:39;101547.59;;;9.24;100.00
72116;BME280;59991;52.140;5.428;2023-04-29T01:10:52;101558.47;;;9.24;100.00
72116;BME280;59991;52.140;5.428;2023-04-29T01:11:07;101551.81;;;9.21;100.00
72116;BME280;59991;52.140;5.428;2023-04-29T01:12:07;101555.34;;;9.22;100.00
72116;BME280;59991;52.140;5.428;2023-04-29T01:12:44;101546.72;;;9.20;100.00
72116;BME280;59991;52.140;5.428;2023-04-29T01:13:30;101551.72;;;9.18;100.00
72116;BME280;59991;52.140;5.428;2023-04-29T01:14:05;101550.13;;;9.17;100.00
72116;BME280;59991;52.140;5.428;2023-04-29T01:14:38;101551.28;;;9.16;100.00
72116;BME280;59991;52.140;5.428;2023-04-29T01:16:03;101559.78;;;9.14;100.00
72116;BME280;59991;52.140;5.428;2023-04-29T01:16:47;101561.28;;;9.12;100.00
72116;BME280;59991;52.140;5.428;2023-04-29T01:17:24;101555.03;;;9.11;100.00
72116;BME280;59991;52.140;5.428;2023-04-29T01:18:06;101562.06;;;9.12;100.00
72116;BME280;59991;52.140;5.428;2023-04-29T01:18:43;101559.00;;;9.14;100.00
72116;BME280;59991;52.140;5.428;2023-04-29T01:19:57;101559.78;;;9.14;100.00
72116;BME280;59991;52.140;5.428;2023-04-29T01:20:29;101559.00;;;9.14;100.00
72116;BME280;59991;52.140;5.428;2023-04-29T01:21:01;101570.69;;;9.14;100.00
72116;BME280;59991;52.140;5.428;2023-04-29T01:21:44;101568.75;;;9.15;100.00
72116;BME280;59991;52.140;5.428;2023-04-29T01:22:16;101568.75;;;9.15;100.00
72116;BME280;59991;52.140;5.428;2023-04-29T01:22:52;101571.47;;;9.15;100.00
72116;BME280;59991;52.140;5.428;2023-04-29T01:23:27;101572.25;;;9.15;100.00
72116;BME280;59991;52.140;5.428;2023-04-29T01:23:59;101574.19;;;9.15;100.00
72116;BME280;59991;52.140;5.428;2023-04-29T01:24:30;101576.56;;;9.16;100.00
72116;BME280;59991;52.140;5.428;2023-04-29T01:25:02;101567.59;;;9.16;100.00
72116;BME280;59991;52.140;5.428;2023-04-29T01:25:33;101568.75;;;9.15;100.00
72116;BME280;59991;52.140;5.428;2023-04-29T01:26:05;101573.75;;;9.13;100.00
72116;BME280;59991;52.140;5.428;2023-04-29T01:26:36;101569.88;;;9.14;100.00
72116;BME280;59991;52.140;5.428;2023-04-29T01:27:20;101571.03;;;9.13;100.00
72116;BME280;59991;52.140;5.428;2023-04-29T01:28:23;101572.59;;;9.14;100.00
72116;BME280;59991;52.140;5.428;2023-04-29T01:29:16;101572.59;;;9.14;100.00
72116;BME280;59991;52.140;5.428;2023-04-29T01:30:01;101576.91;;;9.15;100.00
72116;BME280;59991;52.140;5.428;2023-04-29T01:30:46;101575.78;;;9.16;100.00
72116;BME280;59991;52.140;5.428;2023-04-29T01:31:27;101571.47;;;9.15;100.00
72116;BME280;59991;52.140;5.428;2023-04-29T01:32:04;101580.75;;;9.14;100.00
72116;BME280;59991;52.140;5.428;2023-04-29T01:32:53;101571.81;;;9.13;100.00
72116;BME280;59991;52.140;5.428;2023-04-29T01:33:39;101577.59;;;9.12;100.00
72116;BME280;59991;52.140;5.428;2023-04-29T01:34:18;101575.22;;;9.10;100.00
72116;BME280;59991;52.140;5.428;2023-04-29T01:35:08;101572.84;;;9.09;100.00
72116;BME280;59991;52.140;5.428;2023-04-29T01:36:13;101578.28;;;9.09;100.00
72116;BME280;59991;52.140;5.428;2023-04-29T01:37:04;101574.78;;;9.08;100.00
72116;BME280;59991;52.140;5.428;2023-04-29T01:37:45;101577.50;;;9.08;100.00
72116;BME280;59991;52.140;5.428;2023-04-29T01:38:28;101579.44;;;9.08;100.00
72116;BME280;59991;52.140;5.428;2023-04-29T01:40:46;101577.06;;;9.06;100.00
72116;BME280;59991;52.140;5.428;2023-04-29T01:41:30;101578.97;;;9.06;100.00
72116;BME280;59991;52.140;5.428;2023-04-29T01:42:14;101577.41;;;9.05;100.00
72116;BME280;59991;52.140;5.428;2023-04-29T01:43:01;101580.50;;;9.03;100.00
72116;BME280;59991;52.140;5.428;2023-04-29T01:43:36;101578.56;;;9.04;100.00
72116;BME280;59991;52.140;5.428;2023-04-29T01:44:14;101580.50;;;9.03;100.00
72116;BME280;59991;52.140;5.428;2023-04-29T01:44:48;101578.56;;;9.04;100.00
72116;BME280;59991;52.140;5.428;2023-04-29T01:45:21;101581.63;;;9.02;100.00
72116;BME280;59991;52.140;5.428;2023-04-29T01:45:55;101587.88;;;9.03;100.00
72116;BME280;59991;52.140;5.428;2023-04-29T01:46:27;101577.78;;;9.03;100.00
72116;BME280;59991;52.140;5.428;2023-04-29T01:46:59;101581.28;;;9.04;100.00
72116;BME280;59991;52.140;5.428;2023-04-29T01:47:31;101584.81;;;9.04;100.00
72116;BME280;59991;52.140;5.428;2023-04-29T01:48:04;101580.13;;;9.05;100.00
72116;BME280;59991;52.140;5.428;2023-04-29T01:48:35;101581.69;;;9.06;100.00
72116;BME280;59991;52.140;5.428;2023-04-29T01:49:07;101584.44;;;9.06;100.00
72116;BME280;59991;52.140;5.428;2023-04-29T01:49:39;101584.06;;;9.07;100.00
72116;BME280;59991;52.140;5.428;2023-04-29T01:50:11;101581.34;;;9.07;100.00
72116;BME280;59991;52.140;5.428;2023-04-29T01:50:42;101582.16;;;9.08;100.00
72116;BME280;59991;52.140;5.428;2023-04-29T01:51:14;101590.31;;;9.08;100.00
72116;BME280;59991;52.140;5.428;2023-04-29T01:51:46;101582.16;;;9.08;100.00
72116;BME280;59991;52.140;5.428;2023-04-29T01:52:17;101578.28;;;9.09;100.00
72116;BME280;59991;52.140;5.428;2023-04-29T01:52:48;101587.25;;;9.09;100.00
72116;BME280;59991;52.140;5.428;2023-04-29T01:53:20;101586.09;;;9.10;100.00
72116;BME280;59991;52.140;5.428;2023-04-29T01:53:51;101584.97;;;9.11;100.00
72116;BME280;59991;52.140;5.428;2023-04-29T01:54:23;101587.69;;;9.11;100.00
72116;BME280;59991;52.140;5.428;2023-04-29T01:54:54;101584.19;;;9.11;100.00
72116;BME280;59991;52.140;5.428;2023-04-29T01:55:26;101583.03;;;9.12;100.00
72116;BME280;59991;52.140;5.428;2023-04-29T01:55:58;101588.47;;;9.12;100.00
72116;BME280;59991;52.140;5.428;2023-04-29T01:56:29;101587.69;;;9.11;100.00
72116;BME280;59991;52.140;5.428;2023-04-29T01:57:01;101584.63;;;9.13;100.00
72116;BME280;59991;52.140;5.428;2023-04-29T01:57:33;101583.50;;;9.14;100.00
72116;BME280;59991;52.140;5.428;2023-04-29T01:58:04;101587.00;;;9.14;100.00
72116;BME280;59991;52.140;5.428;2023-04-29T01:58:36;101586.66;;;9.16;100.00
72116;BME280;59991;52.140;5.428;2023-04-29T01:59:07;101586.66;;;9.16;100.00
72116;BME280;59991;52.140;5.428;2023-04-29T01:59:39;101589.38;;;9.16;100.00
72116;BME280;59991;52.140;5.428;2023-04-29T02:00:11;101587.78;;;9.15;100.00
72116;BME280;59991;52.140;5.428;2023-04-29T02:00:42;101589.38;;;9.16;100.00
72116;BME280;59991;52.140;5.428;2023-04-29T02:01:14;101590.16;;;9.16;100.00
72116;BME280;59991;52.140;5.428;2023-04-29T02:01:46;101584.72;;;9.16;100.00
72116;BME280;59991;52.140;5.428;2023-04-29T02:02:17;101586.31;;;9.17;100.00
72116;BME280;59991;52.140;5.428;2023-04-29T02:02:51;101584.38;;;9.18;100.00
72116;BME280;59991;52.140;5.428;2023-04-29T02:03:23;101589.81;;;9.18;100.00
72116;BME280;59991;52.140;5.428;2023-04-29T02:03:55;101593.34;;;9.18;100.00
72116;BME280;59991;52.140;5.428;2023-04-29T02:04:26;101594.91;;;9.19;100.00
72116;BME280;59991;52.140;5.428;2023-04-29T02:04:59;101588.69;;;9.19;100.00
72116;BME280;59991;52.140;5.428;2023-04-29T02:05:30;101590.25;;;9.20;100.00
72116;BME280;59991;52.140;5.428;2023-04-29T02:06:04;101583.69;;;9.21;100.00
72116;BME280;59991;52.140;5.428;2023-04-29T02:06:37;101597.28;;;9.21;100.00
72116;BME280;59991;52.140;5.428;2023-04-29T02:07:08;101590.72;;;9.22;100.00
72116;BME280;59991;52.140;5.428;2023-04-29T02:07:40;101587.97;;;9.22;100.00
72116;BME280;59991;52.140;5.428;2023-04-29T02:08:12;101597.72;;;9.23;100.00
72116;BME280;59991;52.140;5.428;2023-04-29T02:08:44;101589.56;;;9.23;100.00
72116;BME280;59991;52.140;5.428;2023-04-29T02:09:15;101595.00;;;9.23;100.00
72116;BME280;59991;52.140;5.428;2023-04-29T02:09:46;101592.28;;;9.23;100.00
72116;BME280;59991;52.140;5.428;2023-04-29T02:10:18;101597.72;;;9.23;100.00
72116;BME280;59991;52.140;5.428;2023-04-29T02:10:56;101600.47;;;9.23;100.00
72116;BME280;59991;52.140;5.428;2023-04-29T02:11:28;101595.00;;;9.23;100.00
72116;BME280;59991;52.140;5.428;2023-04-29T02:11:59;101599.66;;;9.22;100.00
72116;BME280;59991;52.140;5.428;2023-04-29T02:12:31;101598.88;;;9.22;100.00
72116;BME280;59991;52.140;5.428;2023-04-29T02:13:02;101598.09;;;9.21;100.00
72116;BME280;59991;52.140;5.428;2023-04-29T02:13:34;101591.06;;;9.20;100.00
72116;BME280;59991;52.140;5.428;2023-04-29T02:14:05;101593.78;;;9.20;100.00
72116;BME280;59991;52.140;5.428;2023-04-29T02:14:37;101600.34;;;9.19;100.00
72116;BME280;59991;52.140;5.428;2023-04-29T02:15:08;101606.94;;;9.18;100.00
72116;BME280;59991;52.140;5.428;2023-04-29T02:15:40;101599.56;;;9.19;100.00
72116;BME280;59991;52.140;5.428;2023-04-29T02:16:12;101601.84;;;9.17;100.00
72116;BME280;59991;52.140;5.428;2023-04-29T02:16:44;101594.13;;;9.19;100.00
72116;BME280;59991;52.140;5.428;2023-04-29T02:17:16;101605.00;;;9.19;100.00
72116;BME280;59991;52.140;5.428;2023-04-29T02:17:47;101606.59;;;9.20;100.00
72116;BME280;59991;52.140;5.428;2023-04-29T02:18:18;101599.91;;;9.17;100.00
72116;BME280;59991;52.140;5.428;2023-04-29T02:18:50;101605.34;;;9.17;100.00
72116;BME280;59991;52.140;5.428;2023-04-29T02:19:21;101601.03;;;9.16;100.00
72116;BME280;59991;52.140;5.428;2023-04-29T02:19:53;101604.56;;;9.17;100.00
72116;BME280;59991;52.140;5.428;2023-04-29T02:20:25;101610.00;;;9.17;100.00
72116;BME280;59991;52.140;5.428;2023-04-29T02:21:00;101604.56;;;9.17;100.00
72116;BME280;59991;52.140;5.428;2023-04-29T02:21:34;101604.56;;;9.17;100.00
72116;BME280;59991;52.140;5.428;2023-04-29T02:22:06;101607.28;;;9.17;100.00
72116;BME280;59991;52.140;5.428;2023-04-29T02:22:38;101607.28;;;9.17;100.00
72116;BME280;59991;52.140;5.428;2023-04-29T02:23:09;101612.72;;;9.17;100.00
72116;BME280;59991;52.140;5.428;2023-04-29T02:23:40;101612.72;;;9.17;100.00
72116;BME280;59991;52.140;5.428;2023-04-29T02:24:12;101610.78;;;9.17;100.00
72116;BME280;59991;52.140;5.428;2023-04-29T02:24:43;101608.41;;;9.16;100.00
72116;BME280;59991;52.140;5.428;2023-04-29T02:25:15;101611.59;;;9.18;100.00
72116;BME280;59991;52.140;5.428;2023-04-29T02:25:46;101606.50;;;9.16;100.00
72116;BME280;59991;52.140;5.428;2023-04-29T02:26:18;101611.16;;;9.16;100.00
72116;BME280;59991;52.140;5.428;2023-04-29T02:26:50;101608.41;;;9.16;100.00
72116;BME280;59991;52.140;5.428;2023-04-29T02:27:21;101605.69;;;9.16;100.00
72116;BME280;59991;52.140;5.428;2023-04-29T02:27:53;101613.88;;;9.16;100.00
72116;BME280;59991;52.140;5.428;2023-04-29T02:28:24;101611.16;;;9.16;100.00
72116;BME280;59991;52.140;5.428;2023-04-29T02:28:56;101610.69;;;9.14;100.00
72116;BME280;59991;52.140;5.428;2023-04-29T02:29:28;101618.84;;;9.14;100.00
72116;BME280;59991;52.140;5.428;2023-04-29T02:30:01;101625.44;;;9.13;100.00
72116;BME280;59991;52.140;5.428;2023-04-29T02:30:32;101618.84;;;9.14;100.00
72116;BME280;59991;52.140;5.428;2023-04-29T02:31:04;101619.66;;;9.14;100.00
72116;BME280;59991;52.140;5.428;2023-04-29T02:31:35;101623.94;;;9.15;99.96
72116;BME280;59991;52.140;5.428;2023-04-29T02:32:07;101625.53;;;9.16;100.00
72116;BME280;59991;52.140;5.428;2023-04-29T02:32:38;101620.09;;;9.16;100.00
72116;BME280;59991;52.140;5.428;2023-04-29T02:33:10;101617.38;;;9.16;100.00
72116;BME280;59991;52.140;5.428;2023-04-29T02:33:41;101617.03;;;9.18;99.82
72116;BME280;59991;52.140;5.428;2023-04-29T02:34:13;101616.25;;;9.17;100.00
72116;BME280;59991;52.140;5.428;2023-04-29T02:34:45;101618.97;;;9.17;100.00
72116;BME280;59991;52.140;5.428;2023-04-29T02:35:16;101625.19;;;9.18;100.00
72116;BME280;59991;52.140;5.428;2023-04-29T02:35:47;101622.47;;;9.18;100.00
72116;BME280;59991;52.140;5.428;2023-04-29T02:36:19;101624.06;;;9.19;100.00
72116;BME280;59991;52.140;5.428;2023-04-29T02:36:51;101620.19;;;9.20;100.00
72116;BME280;59991;52.140;5.428;2023-04-29T02:37:22;101621.00;;;9.20;99.85
72116;BME280;59991;52.140;5.428;2023-04-29T02:37:54;101624.16;;;9.22;100.00
72116;BME280;59991;52.140;5.428;2023-04-29T02:38:25;101626.88;;;9.22;99.75
72116;BME280;59991;52.140;5.428;2023-04-29T02:38:57;101620.28;;;9.23;100.00
72116;BME280;59991;52.140;5.428;2023-04-29T02:39:28;101623.78;;;9.24;99.90
72116;BME280;59991;52.140;5.428;2023-04-29T02:40:00;101622.63;;;9.25;99.73
72116;BME280;59991;52.140;5.428;2023-04-29T02:40:32;101622.63;;;9.25;99.67
72116;BME280;59991;52.140;5.428;2023-04-29T02:41:03;101621.06;;;9.24;99.94
72116;BME280;59991;52.140;5.428;2023-04-29T02:41:35;101625.00;;;9.26;99.82
72116;BME280;59991;52.140;5.428;2023-04-29T02:42:06;101626.94;;;9.26;99.50
72116;BME280;59991;52.140;5.428;2023-04-29T02:42:38;101630.47;;;9.26;99.56
72116;BME280;59991;52.140;5.428;2023-04-29T02:43:09;101634.75;;;9.27;99.74
72116;BME280;59991;52.140;5.428;2023-04-29T02:43:41;101632.84;;;9.28;99.50
72116;BME280;59991;52.140;5.428;2023-04-29T02:44:12;101641.00;;;9.28;99.41
72116;BME280;59991;52.140;5.428;2023-04-29T02:44:44;101641.78;;;9.28;99.42
72116;BME280;59991;52.140;5.428;2023-04-29T02:45:15;101633.63;;;9.28;99.53
72116;BME280;59991;52.140;5.428;2023-04-29T02:45:47;101637.47;;;9.27;99.64
72116;BME280;59991;52.140;5.428;2023-04-29T02:46:19;101641.00;;;9.28;99.70
72116;BME280;59991;52.140;5.428;2023-04-29T02:46:50;101641.34;;;9.26;99.83
72116;BME280;59991;52.140;5.428;2023-04-29T02:47:22;101639.75;;;9.25;99.91
72116;BME280;59991;52.140;5.428;2023-04-29T02:47:53;101634.66;;;9.24;99.94
72116;BME280;59991;52.140;5.428;2023-04-29T02:48:25;101640.09;;;9.24;99.72
72116;BME280;59991;52.140;5.428;2023-04-29T02:48:56;101644.78;;;9.23;100.00
72116;BME280;59991;52.140;5.428;2023-04-29T02:49:27;101641.28;;;9.23;99.88
72116;BME280;59991;52.140;5.428;2023-04-29T02:49:59;101644.78;;;9.23;99.54
72116;BME280;59991;52.140;5.428;2023-04-29T02:50:30;101640.47;;;9.22;99.67
72116;BME280;59991;52.140;5.428;2023-04-29T02:51:02;101646.72;;;9.23;99.70
72116;BME280;59991;52.140;5.428;2023-04-29T02:51:34;101644.78;;;9.23;99.91
72116;BME280;59991;52.140;5.428;2023-04-29T02:52:05;101648.28;;;9.24;99.61
72116;BME280;59991;52.140;5.428;2023-04-29T02:52:37;101645.53;;;9.24;99.54
72116;BME280;59991;52.140;5.428;2023-04-29T02:53:09;101651.78;;;9.24;99.46
72116;BME280;59991;52.140;5.428;2023-04-29T02:53:41;101646.34;;;9.24;99.54
72116;BME280;59991;52.140;5.428;2023-04-29T02:54:12;101650.22;;;9.23;99.98
72116;BME280;59991;52.140;5.428;2023-04-29T02:54:44;101647.50;;;9.23;99.41
72116;BME280;59991;52.140;5.428;2023-04-29T02:55:15;101645.53;;;9.24;100.00
72116;BME280;59991;52.140;5.428;2023-04-29T02:55:47;101642.81;;;9.24;99.65
72116;BME280;59991;52.140;5.428;2023-04-29T02:56:18;101648.66;;;9.22;99.64
72116;BME280;59991;52.140;5.428;2023-04-29T02:56:50;101649.44;;;9.23;99.89
72116;BME280;59991;52.140;5.428;2023-04-29T02:57:21;101650.91;;;9.20;99.79
72116;BME280;59991;52.140;5.428;2023-04-29T02:57:53;101642.75;;;9.20;99.56
72116;BME280;59991;52.140;5.428;2023-04-29T02:58:24;101643.91;;;9.19;99.49